Strona główna
METAR-TAF:

METAR-TAF

Lotnisko :

Black_Hills

Spearfish, Dakota Południowa, Stany Zjednoczone

Szerokość geograficzna: 44-29N, Długość geograficzna: 103-47W, wysokość: 1188 m

Aktualna obserwacja pogody

Raport powstał 10 minut temu, godzina 18:35 UTC
Wiatr 23 kt od zachodnio-północny zachód w porywach dochodzący do 35 kt
Temperatura 3°C
Wilgotność 56%
Ciśnienie 1012 hPa
Widzialność: 16.1 km

METAR: KSPF 111835Z AUTO 30023G35KT 10SM 03/M05 A2988 RMK AO2 PWINO

czas: 12:45 (18:45 UTC)


TAF: brakujący

Obserwacja i prognoza pogody dla ponad 4000 lotnisk (raport METAR i TAF).

Dostępne stacje oznaczono żółtymi i czerwonymi punktami na mapie.

Najedź kursorem aby zobaczyć nazwę stacji.

Kliknij aby zobaczyć obserwacje i prognozy pogody.

Aby zmienić mapę: kliknij na zielony przycisk z czarnym krzyżykiem, aby powiększyć; na zielony przycisk z myślnikiem, aby pomniejszyć; na zielone strzałki, aby przejść do map sąsiednich.


METAR-TAF: